Time;durP1;ratioP1;P1;durP2;ratioP2;P2;SDS_P1;SDS_P2;PMS_P1;PMS_P2;Temp;Humidity;BMP_temperature;BMP_pressure;BME280_temperature;BME280_humidity;BME280_pressure;Samples;Min_cycle;Max_cycle;Signal;HPM_P1;HPM_P2
2023/07/03 00:00:42;;;;;;;;;2.00;2.00;;;;;21.52;42.56;101015.13;5097089;27;45774;-69
2023/07/03 00:03:13;;;;;;;;;2.00;2.00;;;;;21.52;42.53;101017.00;5092422;27;45514;-68
2023/07/03 00:05:41;;;;;;;;;5.67;2.00;;;;;21.06;42.67;100944.81;5094081;27;45386;-69
2023/07/03 00:08:06;;;;;;;;;1.33;1.00;;;;;21.46;42.90;101007.84;5097365;27;45332;-69
2023/07/03 00:10:31;;;;;;;;;3.67;2.00;;;;;21.51;42.57;101012.63;5097037;27;45586;-69
2023/07/03 00:12:57;;;;;;;;;5.33;4.00;;;;;21.58;42.92;101018.03;5093522;27;57927;-69
2023/07/03 00:15:22;;;;;;;;;4.67;2.67;;;;;21.40;43.18;100995.13;5092129;27;45235;-69
2023/07/03 00:17:47;;;;;;;;;2.00;2.00;;;;;21.48;42.88;101018.47;5095406;27;47552;-69
2023/07/03 00:20:14;;;;;;;;;2.00;2.00;;;;;21.49;43.64;101018.25;5066240;27;47695;-69
2023/07/03 00:22:44;;;;;;;;;3.00;3.00;;;;;21.48;43.99;101022.00;5097169;27;45351;-70
2023/07/03 00:25:09;;;;;;;;;6.00;4.00;;;;;21.40;44.17;101010.53;5080207;27;45336;-69
2023/07/03 00:27:35;;;;;;;;;3.00;2.00;;;;;21.13;44.46;100972.66;5100630;27;45335;-68
2023/07/03 00:30:00;;;;;;;;;2.33;2.00;;;;;21.36;44.75;101010.13;5082013;27;47028;-68
2023/07/03 00:32:28;;;;;;;;;3.00;3.00;;;;;21.31;44.86;100995.56;5100702;27;46490;-68
2023/07/03 00:34:53;;;;;;;;;4.33;2.00;;;;;21.10;45.18;100961.44;5082360;27;45252;-67
2023/07/03 00:37:21;;;;;;;;;2.33;2.00;;;;;21.40;45.03;100997.00;5080386;28;45376;-69
2023/07/03 00:39:46;;;;;;;;;3.33;3.33;;;;;21.40;45.18;100994.31;5079886;27;46423;-69
2023/07/03 00:42:12;;;;;;;;;4.00;2.67;;;;;21.21;45.22;100958.91;5070321;27;45391;-69
2023/07/03 00:44:37;;;;;;;;;2.33;2.33;;;;;21.26;45.36;100982.69;5098711;27;45400;-69
2023/07/03 00:47:03;;;;;;;;;2.33;2.33;;;;;21.35;45.41;100986.00;5100568;27;45221;-69
2023/07/03 00:49:29;;;;;;;;;4.00;4.00;;;;;21.31;45.37;100985.59;5100408;27;46687;-70
2023/07/03 00:51:57;;;;;;;;;3.00;3.00;;;;;21.36;45.64;100996.59;5099535;27;45366;-69
2023/07/03 00:54:23;;;;;;;;;2.00;2.00;;;;;21.36;45.51;100988.50;5100357;27;45186;-70
2023/07/03 00:56:49;;;;;;;;;7.00;3.00;;;;;21.00;45.76;100939.38;5100164;27;45289;-69
2023/07/03 00:59:15;;;;;;;;;5.00;3.33;;;;;21.32;45.59;100989.97;5099700;27;45210;-68
2023/07/03 01:02:01;;;;;;;;;5.00;4.00;;;;;21.26;45.97;100979.97;5100010;27;45307;-68
2023/07/03 01:04:34;;;;;;;;;3.33;3.33;;;;;21.36;45.72;100995.78;5100297;27;45280;-69
2023/07/03 01:07:08;;;;;;;;;4.67;3.00;;;;;21.34;45.58;100989.75;5100377;27;45418;-68
2023/07/03 01:09:41;;;;;;;;;2.00;1.00;;;;;20.92;45.77;100922.34;5087211;27;46492;-68
2023/07/03 01:12:08;;;;;;;;;3.00;3.00;;;;;21.31;45.69;100972.06;5079393;27;45376;-69
2023/07/03 01:14:35;;;;;;;;;4.00;3.67;;;;;21.30;45.71;100978.53;5087592;27;45171;-69
2023/07/03 01:17:01;;;;;;;;;5.00;4.00;;;;;21.36;45.48;100993.06;5100283;27;45283;-68
2023/07/03 01:19:31;;;;;;;;;4.33;4.33;;;;;21.29;45.79;100976.03;5098852;27;45746;-68
2023/07/03 01:22:08;;;;;;;;;4.00;3.00;;;;;21.27;45.73;100987.06;5081229;27;45337;-69
2023/07/03 01:24:51;;;;;;;;;3.67;3.00;;;;;21.29;45.98;100981.44;5081124;27;45341;-68
2023/07/03 01:27:22;;;;;;;;;3.00;3.00;;;;;21.36;46.11;100993.91;5099897;27;45211;-69
2023/07/03 01:29:50;;;;;;;;;5.00;3.67;;;;;21.35;46.23;100989.53;5085984;27;45522;-69
2023/07/03 01:32:19;;;;;;;;;2.67;2.67;;;;;21.35;46.34;100986.84;5078930;28;45486;-68
2023/07/03 01:34:47;;;;;;;;;3.67;3.67;;;;;21.28;46.13;100983.31;5079456;27;45372;-69
2023/07/03 01:37:14;;;;;;;;;3.33;2.00;;;;;21.34;46.70;100987.88;5078426;28;45536;-69
2023/07/03 01:39:42;;;;;;;;;6.00;4.33;;;;;21.37;46.40;100983.91;5079110;27;47267;-69
2023/07/03 01:42:08;;;;;;;;;2.67;2.67;;;;;21.34;46.47;100990.56;5079150;27;45445;-69
2023/07/03 01:44:34;;;;;;;;;5.67;3.00;;;;;21.32;46.73;100992.66;5086666;27;45284;-69
2023/07/03 01:47:08;;;;;;;;;4.00;3.00;;;;;21.23;46.79;100972.25;5099765;27;45280;-69
2023/07/03 01:49:34;;;;;;;;;4.00;4.00;;;;;21.33;46.86;100988.91;5099160;27;47146;-68
2023/07/03 01:52:18;;;;;;;;;3.00;2.00;;;;;21.27;47.09;100981.66;5099225;27;45286;-69
2023/07/03 01:55:08;;;;;;;;;3.00;3.00;;;;;21.34;47.21;100985.16;5080691;27;45266;-69
2023/07/03 01:57:58;;;;;;;;;5.33;2.67;;;;;21.30;47.05;100989.34;5099233;27;45438;-68
2023/07/03 02:00:42;;;;;;;;;4.00;2.67;;;;;21.30;47.57;100988.50;5098938;27;45828;-66
2023/07/03 02:03:20;;;;;;;;;5.00;4.00;;;;;21.24;47.23;100982.06;5098951;27;45292;-67
2023/07/03 02:05:48;;;;;;;;;5.33;4.33;;;;;21.19;47.77;100974.53;5099078;27;45221;-69
2023/07/03 02:08:16;;;;;;;;;5.67;3.00;;;;;21.26;47.95;100988.09;5098901;27;45356;-68
2023/07/03 02:10:41;;;;;;;;;6.00;6.00;;;;;21.24;48.19;100985.59;5098767;27;45706;-68
2023/07/03 02:13:06;;;;;;;;;3.67;3.00;;;;;21.19;48.10;100979.94;5098864;27;45335;-68
2023/07/03 02:15:32;;;;;;;;;4.33;3.33;;;;;21.17;48.00;100968.50;5080712;27;45401;-69
2023/07/03 02:17:58;;;;;;;;;4.67;4.67;;;;;21.17;48.44;100979.31;5079616;27;46328;-67
2023/07/03 02:20:23;;;;;;;;;2.33;2.00;;;;;21.21;48.14;100977.84;5078365;27;46473;-70
2023/07/03 02:22:49;;;;;;;;;7.67;5.67;;;;;20.70;48.49;100911.94;5078362;28;45337;-69
2023/07/03 02:25:15;;;;;;;;;5.33;3.00;;;;;21.12;48.77;100976.41;5078303;27;45204;-67
2023/07/03 02:27:44;;;;;;;;;3.67;2.67;;;;;21.14;48.50;100977.03;5078630;28;45337;-69
2023/07/03 02:30:11;;;;;;;;;6.00;5.00;;;;;21.11;48.43;100979.31;5078340;27;46294;-70
2023/07/03 02:32:38;;;;;;;;;4.67;4.67;;;;;21.06;48.52;100965.59;5077873;27;45392;-68
2023/07/03 02:35:05;;;;;;;;;5.67;4.33;;;;;21.05;48.82;100967.47;5078226;28;45324;-68
2023/07/03 02:37:30;;;;;;;;;3.00;2.00;;;;;21.01;48.72;100946.44;5078416;28;45462;-70
2023/07/03 02:39:56;;;;;;;;;5.00;5.00;;;;;21.11;48.83;100963.09;5077723;27;46421;-69
2023/07/03 02:42:21;;;;;;;;;5.67;5.00;;;;;20.62;49.03;100891.31;5059903;28;45376;-69
2023/07/03 02:44:46;;;;;;;;;5.00;5.00;;;;;20.98;49.02;100963.91;5086649;27;45232;-69
2023/07/03 02:47:12;;;;;;;;;5.67;3.67;;;;;21.02;49.05;100958.91;5098176;27;45363;-69
2023/07/03 02:49:37;;;;;;;;;5.33;4.00;;;;;21.04;49.11;100962.28;5097992;27;46484;-69
2023/07/03 02:52:03;;;;;;;;;6.00;4.67;;;;;20.99;49.46;100960.16;5098121;27;45332;-69
2023/07/03 02:54:28;;;;;;;;;5.67;3.00;;;;;20.92;49.65;100970.97;5098235;27;45371;-69
2023/07/03 02:56:54;;;;;;;;;3.33;3.33;;;;;20.93;49.57;100978.06;5074102;28;45548;-69
2023/07/03 02:59:19;;;;;;;;;5.00;4.00;;;;;20.84;49.56;100960.38;5059282;28;46487;-69
2023/07/03 03:01:44;;;;;;;;;4.00;4.00;;;;;20.48;49.76;100908.56;5059343;28;45430;-69
2023/07/03 03:04:10;;;;;;;;;4.67;3.67;;;;;20.87;50.10;100976.19;5059502;28;45479;-69
2023/07/03 03:06:36;;;;;;;;;5.00;3.67;;;;;20.84;50.36;100973.06;5077934;27;45384;-68
2023/07/03 03:09:02;;;;;;;;;6.67;5.00;;;;;20.55;50.43;100931.84;5077158;27;45757;-69
2023/07/03 03:11:27;;;;;;;;;6.67;4.33;;;;;20.80;50.50;100972.63;5077496;27;45356;-68
2023/07/03 03:13:52;;;;;;;;;4.00;4.00;;;;;20.83;50.52;100972.22;5078225;27;45225;-69
2023/07/03 03:16:18;;;;;;;;;7.33;6.33;;;;;20.27;50.27;100880.66;5097781;27;45372;-70
2023/07/03 03:18:43;;;;;;;;;4.67;4.00;;;;;20.76;50.41;100962.44;5078215;27;45634;-71
2023/07/03 03:21:08;;;;;;;;;6.33;4.67;;;;;20.77;50.35;100958.69;5077417;27;45452;-69
2023/07/03 03:23:34;;;;;;;;;6.33;5.33;;;;;20.79;50.29;100957.44;5082788;27;45528;-69
2023/07/03 03:25:59;;;;;;;;;4.00;4.00;;;;;20.75;50.01;100950.78;5079788;27;45476;-69
2023/07/03 03:28:24;;;;;;;;;5.33;5.33;;;;;20.82;50.24;100959.75;5097227;27;61534;-69
2023/07/03 03:30:50;;;;;;;;;5.33;4.00;;;;;20.52;50.07;100904.41;5097681;27;45462;-70
2023/07/03 03:33:15;;;;;;;;;5.67;5.00;;;;;20.81;50.24;100951.81;5095565;27;45509;-68
2023/07/03 03:35:41;;;;;;;;;6.67;5.67;;;;;20.44;50.26;100899.22;5077713;28;45316;-69
2023/07/03 03:38:06;;;;;;;;;7.00;6.00;;;;;20.77;50.03;100947.88;5076956;28;46415;-70
2023/07/03 03:40:31;;;;;;;;;5.00;5.00;;;;;20.80;50.65;100961.81;5077237;27;45474;-69
2023/07/03 03:42:57;;;;;;;;;8.67;5.67;;;;;20.82;50.96;100964.31;5059051;28;45441;-67
2023/07/03 03:45:22;;;;;;;;;8.00;5.00;;;;;20.81;50.84;100963.47;5095889;27;45569;-71
2023/07/03 03:47:48;;;;;;;;;8.33;7.00;;;;;20.82;51.05;100953.50;5097393;27;46009;-69
2023/07/03 03:50:13;;;;;;;;;6.00;6.00;;;;;20.84;51.04;100959.56;5097329;27;45420;-68
2023/07/03 03:52:39;;;;;;;;;5.00;4.00;;;;;20.86;51.29;100966.41;5097595;27;45394;-68
2023/07/03 03:55:04;;;;;;;;;4.67;4.67;;;;;20.47;51.05;100891.53;5080533;27;45583;-69
2023/07/03 03:57:30;;;;;;;;;5.00;5.00;;;;;20.76;51.76;100960.56;5096190;27;46471;-70
2023/07/03 03:59:55;;;;;;;;;7.33;6.33;;;;;20.77;51.51;100956.81;5080444;27;45311;-70
2023/07/03 04:02:20;;;;;;;;;7.00;4.00;;;;;20.81;51.82;100958.06;5082946;27;45286;-68
2023/07/03 04:04:46;;;;;;;;;11.33;8.33;;;;;20.73;51.60;100947.47;5101302;27;45511;-68
2023/07/03 04:07:12;;;;;;;;;9.33;7.33;;;;;20.84;51.91;100968.50;5066080;28;45838;-68
2023/07/03 04:09:38;;;;;;;;;8.00;5.00;;;;;20.89;51.93;100970.56;5080242;27;45485;-68
2023/07/03 04:12:03;;;;;;;;;7.00;6.33;;;;;20.72;52.04;100936.88;5080604;27;45472;-68
2023/07/03 04:14:29;;;;;;;;;9.67;7.33;;;;;20.91;51.61;100968.50;5085329;27;45558;-67
2023/07/03 04:16:57;;;;;;;;;3.00;3.00;;;;;20.85;51.81;100964.75;5100020;27;45515;-68
2023/07/03 04:19:23;;;;;;;;;5.33;4.33;;;;;20.72;52.26;100948.50;5086032;27;45447;-68
2023/07/03 04:21:48;;;;;;;;;4.00;4.00;;;;;20.79;52.08;100957.44;5080481;28;45426;-69
2023/07/03 04:24:14;;;;;;;;;8.00;5.00;;;;;20.71;52.27;100954.94;5080251;28;45238;-69
2023/07/03 04:26:41;;;;;;;;;9.33;6.33;;;;;20.74;52.50;100961.81;5090526;27;46361;-69
2023/07/03 04:29:07;;;;;;;;;4.33;4.33;;;;;20.72;52.59;100959.31;5080464;27;45527;-69
2023/07/03 04:31:33;;;;;;;;;6.33;5.33;;;;;20.75;52.52;100963.47;5061966;27;45387;-70
2023/07/03 04:33:59;;;;;;;;;5.00;4.00;;;;;20.75;52.67;100969.69;5062256;28;45498;-69
2023/07/03 04:36:24;;;;;;;;;6.00;5.00;;;;;20.75;52.74;100974.28;5079983;27;45798;-70
2023/07/03 04:38:50;;;;;;;;;4.00;4.00;;;;;20.68;53.05;100952.66;5095737;27;45423;-70
2023/07/03 04:41:16;;;;;;;;;4.00;4.00;;;;;20.66;52.80;100949.34;5068423;27;45550;-68
2023/07/03 04:43:44;;;;;;;;;6.33;6.33;;;;;20.76;52.93;100963.25;5080235;28;45462;-69
2023/07/03 04:46:11;;;;;;;;;9.33;7.33;;;;;20.71;53.26;100949.53;5098176;27;46913;-69
2023/07/03 04:48:37;;;;;;;;;10.67;7.67;;;;;20.77;53.23;100959.53;5100254;27;45372;-69
2023/07/03 04:51:03;;;;;;;;;7.33;5.67;;;;;20.77;53.30;100948.72;5099499;27;45416;-70
2023/07/03 04:53:31;;;;;;;;;5.67;4.67;;;;;20.79;53.33;100959.31;5084839;27;45435;-68
2023/07/03 04:55:57;;;;;;;;;8.00;5.67;;;;;20.68;53.36;100941.03;5079183;27;46550;-69
2023/07/03 04:58:22;;;;;;;;;3.67;3.33;;;;;20.77;53.08;100958.69;5079457;27;45562;-69
2023/07/03 05:00:48;;;;;;;;;3.33;3.33;;;;;20.79;53.24;100957.44;5087968;27;45507;-68
2023/07/03 05:03:14;;;;;;;;;7.33;5.67;;;;;20.82;53.19;100958.91;5100598;27;45453;-67
2023/07/03 05:05:39;;;;;;;;;5.00;5.00;;;;;20.84;53.44;100957.69;5081858;27;47883;-68
2023/07/03 05:08:04;;;;;;;;;7.00;4.33;;;;;20.63;53.26;100914.63;5081857;27;45588;-69
2023/07/03 05:10:30;;;;;;;;;10.00;5.00;;;;;20.92;53.02;100960.16;5098793;27;45365;-68
2023/07/03 05:12:56;;;;;;;;;8.33;6.00;;;;;20.93;53.02;100956.44;5099274;27;45474;-69
2023/07/03 05:15:22;;;;;;;;;9.33;7.33;;;;;20.81;53.15;100952.66;5077831;27;47632;-68
2023/07/03 05:17:49;;;;;;;;;9.33;5.67;;;;;20.80;53.60;100960.97;5079114;27;45369;-70
2023/07/03 05:20:17;;;;;;;;;5.00;4.67;;;;;20.76;53.16;100944.34;5061222;28;45218;-69
2023/07/03 05:22:44;;;;;;;;;5.67;5.67;;;;;20.83;53.52;100950.63;5079578;27;45486;-70
2023/07/03 05:25:11;;;;;;;;;5.00;5.00;;;;;20.90;53.16;100964.94;5078836;27;46563;-68
2023/07/03 05:27:38;;;;;;;;;3.67;3.67;;;;;20.92;53.04;100972.84;5077442;27;45527;-70
2023/07/03 05:30:04;;;;;;;;;6.00;5.00;;;;;20.90;53.08;100970.34;5076040;27;45613;-69
2023/07/03 05:32:30;;;;;;;;;7.33;6.00;;;;;20.94;53.55;100982.41;5086567;27;45321;-69
2023/07/03 05:34:56;;;;;;;;;5.33;5.33;;;;;20.87;53.34;100968.06;5078887;27;46464;-71
2023/07/03 05:37:22;;;;;;;;;6.00;5.00;;;;;20.89;53.24;100966.00;5078791;27;45422;-68
2023/07/03 05:39:49;;;;;;;;;4.33;4.33;;;;;20.96;53.25;100966.00;5083351;27;45578;-69
2023/07/03 05:42:16;;;;;;;;;6.00;6.00;;;;;21.06;53.42;100961.03;5078420;27;45714;-69
2023/07/03 05:44:41;;;;;;;;;6.33;4.67;;;;;21.10;53.36;100958.72;5097504;27;45547;-70
2023/07/03 05:47:07;;;;;;;;;9.00;5.00;;;;;21.05;52.79;100945.84;5089318;27;45580;-69
2023/07/03 05:49:32;;;;;;;;;5.00;5.00;;;;;21.20;52.47;100961.84;5065210;28;45435;-68
2023/07/03 05:51:57;;;;;;;;;5.67;4.00;;;;;21.23;52.40;100956.03;5058394;28;45754;-68
2023/07/03 05:54:23;;;;;;;;;4.33;4.33;;;;;21.02;51.65;100927.31;5060213;28;48279;-68
2023/07/03 05:56:59;;;;;;;;;5.00;5.00;;;;;20.92;50.90;100905.28;5088194;27;45535;-70
2023/07/03 05:59:25;;;;;;;;;3.67;3.00;;;;;21.34;50.30;100966.22;5069065;27;45566;-69
2023/07/03 06:01:53;;;;;;;;;2.33;2.33;;;;;21.10;49.22;100920.88;5073854;27;45501;-68
2023/07/03 06:04:19;;;;;;;;;3.67;3.67;;;;;21.27;48.77;100945.66;5080778;27;47078;-69
2023/07/03 06:06:44;;;;;;;;;6.33;4.67;;;;;21.25;48.54;100952.09;5079830;27;45605;-69
2023/07/03 06:09:09;;;;;;;;;5.33;4.00;;;;;21.29;48.72;100957.09;5097344;27;45418;-70
2023/07/03 06:11:35;;;;;;;;;9.00;5.33;;;;;21.39;48.49;100969.13;5092604;27;45537;-69
2023/07/03 06:14:01;;;;;;;;;3.33;3.33;;;;;21.20;48.65;100926.69;5083301;27;45953;-69
2023/07/03 06:16:27;;;;;;;;;7.67;7.00;;;;;21.58;48.76;100980.97;5097980;27;45442;-67
2023/07/03 06:18:54;;;;;;;;;8.33;7.00;;;;;21.56;48.67;100964.97;5094107;27;45556;-68
2023/07/03 06:21:19;;;;;;;;;11.67;10.00;;;;;21.43;49.11;100931.72;5082294;27;45766;-71
2023/07/03 06:23:44;;;;;;;;;5.00;4.00;;;;;21.89;48.82;100977.59;5093074;27;46189;-73
2023/07/03 06:26:10;;;;;;;;;4.67;4.33;;;;;22.19;48.56;100977.09;5098403;27;45203;-69
2023/07/03 06:28:36;;;;;;;;;7.00;5.00;;;;;22.30;48.88;100965.59;5089422;27;45436;-69
2023/07/03 06:31:01;;;;;;;;;7.00;4.33;;;;;22.44;47.72;100961.78;5081952;27;45709;-70
2023/07/03 06:33:27;;;;;;;;;6.00;5.00;;;;;22.78;47.48;100965.94;5094828;27;52259;-70
2023/07/03 06:35:52;;;;;;;;;4.67;3.00;;;;;23.12;46.63;100977.41;5097549;27;45459;-67
2023/07/03 06:38:17;;;;;;;;;5.33;4.33;;;;;23.54;45.91;100957.63;5097385;27;47639;-69
2023/07/03 06:40:43;;;;;;;;;5.67;3.33;;;;;24.20;45.36;100972.38;5080736;27;45537;-67
2023/07/03 06:43:08;;;;;;;;;4.00;3.67;;;;;24.27;43.79;100916.06;5087593;27;51145;-70
2023/07/03 06:45:36;;;;;;;;;4.00;4.00;;;;;24.81;42.57;100965.91;5078317;27;45427;-69
2023/07/03 06:48:02;;;;;;;;;7.00;4.33;;;;;24.90;42.56;100952.81;5097518;27;45405;-70
2023/07/03 06:50:29;;;;;;;;;4.33;4.33;;;;;25.06;42.66;100963.06;5097692;27;45312;-70
2023/07/03 06:52:54;;;;;;;;;4.00;4.00;;;;;25.12;41.91;100962.94;5097594;27;46645;-69
2023/07/03 06:55:20;;;;;;;;;5.67;2.00;;;;;25.10;41.88;100937.03;5063378;27;45443;-69
2023/07/03 06:57:45;;;;;;;;;5.33;5.00;;;;;25.20;41.43;100966.38;5078962;27;45449;-69
2023/07/03 07:00:11;;;;;;;;;5.00;4.00;;;;;25.11;41.52;100938.69;5076288;27;45578;-68
2023/07/03 07:02:37;;;;;;;;;4.33;3.67;;;;;24.99;41.59;100929.66;5081435;27;45996;-70
2023/07/03 07:05:03;;;;;;;;;5.00;5.00;;;;;25.16;41.35;100964.13;5078569;27;45459;-70
2023/07/03 07:07:29;;;;;;;;;3.00;3.00;;;;;25.07;41.32;100968.25;5090998;27;45553;-70
2023/07/03 07:09:55;;;;;;;;;3.00;3.00;;;;;25.10;41.64;100965.06;5087152;27;45654;-73
2023/07/03 07:12:21;;;;;;;;;6.67;5.00;;;;;24.89;40.97;100924.78;5052512;27;47449;-69
2023/07/03 07:14:47;;;;;;;;;4.00;4.00;;;;;25.28;40.84;100955.16;5079309;27;45423;-71
2023/07/03 07:17:12;;;;;;;;;2.33;2.00;;;;;25.24;40.15;100959.41;5092598;27;45434;-67
2023/07/03 07:19:37;;;;;;;;;5.00;5.00;;;;;25.43;40.98;100974.56;5078665;27;45393;-69
2023/07/03 07:22:03;;;;;;;;;6.00;6.00;;;;;25.34;40.51;100954.19;5088764;27;46076;-69
2023/07/03 07:24:28;;;;;;;;;3.67;1.67;;;;;25.43;40.55;100974.56;5086634;27;45498;-68
2023/07/03 07:26:58;;;;;;;;;3.33;3.33;;;;;25.26;40.92;100974.44;5090243;27;45415;-69
2023/07/03 07:29:25;;;;;;;;;7.00;7.00;;;;;25.04;41.18;100943.44;5083390;27;45471;-68
2023/07/03 07:31:54;;;;;;;;;5.67;4.00;;;;;25.11;40.73;100974.06;5093275;27;46536;-70
2023/07/03 07:34:20;;;;;;;;;4.00;4.00;;;;;25.03;41.53;100977.97;5094710;27;45348;-71
2023/07/03 07:36:45;;;;;;;;;4.33;3.33;;;;;25.06;40.95;100977.50;5095543;27;45343;-71
2023/07/03 07:39:10;;;;;;;;;4.00;3.00;;;;;24.96;41.08;100962.75;5095556;27;45357;-70
2023/07/03 07:41:36;;;;;;;;;3.67;3.67;;;;;24.71;40.91;100916.72;5096376;27;45628;-70
2023/07/03 07:44:02;;;;;;;;;3.00;3.00;;;;;25.02;41.19;100973.56;5096896;27;45326;-70
2023/07/03 07:46:29;;;;;;;;;5.33;4.00;;;;;25.04;40.82;100976.06;5110467;27;45234;-70
2023/07/03 07:48:56;;;;;;;;;3.33;3.33;;;;;24.90;41.47;100978.13;5118113;27;45338;-69
2023/07/03 07:51:23;;;;;;;;;6.33;4.33;;;;;24.88;42.00;100977.53;5113603;27;45712;-70
2023/07/03 07:53:48;;;;;;;;;5.67;4.33;;;;;24.76;41.87;100984.81;5096860;27;45537;-69
2023/07/03 07:56:14;;;;;;;;;3.00;2.00;;;;;24.68;42.38;100988.69;5097039;27;45282;-70
2023/07/03 07:58:40;;;;;;;;;3.67;3.67;;;;;24.56;41.81;100974.22;5097049;27;45350;-69
2023/07/03 08:01:06;;;;;;;;;3.33;2.00;;;;;24.54;42.28;100966.31;5098959;27;45774;-70
2023/07/03 08:03:31;;;;;;;;;4.33;3.00;;;;;24.51;42.36;100974.09;5085868;27;45524;-70
2023/07/03 08:06:03;;;;;;;;;3.00;3.00;;;;;24.52;42.40;100990.16;5067646;27;45474;-70
2023/07/03 08:08:32;;;;;;;;;4.00;3.67;;;;;24.45;42.13;100967.69;5072764;27;45590;-70
2023/07/03 08:11:00;;;;;;;;;4.00;4.00;;;;;24.47;42.29;100981.88;5093648;27;47091;-70
2023/07/03 08:13:28;;;;;;;;;3.00;2.00;;;;;24.22;42.64;100956.66;5093174;27;45354;-69
2023/07/03 08:15:54;;;;;;;;;5.67;4.33;;;;;24.31;43.05;100971.63;5096729;27;45337;-70
2023/07/03 08:18:20;;;;;;;;;4.67;4.67;;;;;24.42;42.63;100995.31;5078735;27;45284;-70
2023/07/03 08:20:46;;;;;;;;;6.33;6.00;;;;;24.18;42.65;100953.56;5101608;27;45730;-70
2023/07/03 08:23:12;;;;;;;;;4.00;4.00;;;;;24.24;42.53;100960.84;5103579;27;45485;-70
2023/07/03 08:25:38;;;;;;;;;7.33;6.00;;;;;24.23;41.97;100958.34;5095659;27;45480;-69
2023/07/03 08:28:04;;;;;;;;;8.00;7.00;;;;;24.11;41.67;100949.31;5091032;27;45662;-68
2023/07/03 08:30:30;;;;;;;;;5.67;4.00;;;;;24.02;41.68;100923.50;5091151;27;45738;-69
2023/07/03 08:32:55;;;;;;;;;5.00;5.00;;;;;24.28;41.23;100966.63;5096157;27;45502;-70
2023/07/03 08:35:21;;;;;;;;;30.67;23.33;;;;;24.37;41.59;100976.16;5096109;27;45457;-70
2023/07/03 08:37:46;;;;;;;;;5.33;4.33;;;;;24.50;41.02;100975.97;5078114;27;45526;-68
2023/07/03 08:40:20;;;;;;;;;3.00;3.00;;;;;24.65;40.60;100983.72;5095928;27;47311;-69
2023/07/03 08:42:51;;;;;;;;;7.33;5.33;;;;;24.34;40.63;100933.13;5078226;27;45434;-68
2023/07/03 08:45:17;;;;;;;;;5.33;5.33;;;;;24.78;40.45;100997.13;5081354;27;45157;-69
2023/07/03 08:47:46;;;;;;;;;6.33;5.00;;;;;24.73;40.22;100972.50;5100111;27;45352;-68
2023/07/03 08:50:17;;;;;;;;;5.33;4.00;;;;;24.74;40.26;100965.19;5099555;27;46514;-69
2023/07/03 08:52:53;;;;;;;;;5.00;5.00;;;;;24.88;40.55;100991.13;5099894;27;45472;-69
2023/07/03 08:55:23;;;;;;;;;3.33;3.33;;;;;24.90;40.64;100986.28;5099660;27;45419;-70
2023/07/03 08:57:49;;;;;;;;;3.00;3.00;;;;;24.52;40.57;100933.09;5100086;27;45438;-70
2023/07/03 09:00:15;;;;;;;;;5.00;4.67;;;;;24.72;40.46;100978.19;5099582;27;45276;-70
2023/07/03 09:02:54;;;;;;;;;5.67;5.67;;;;;24.77;41.02;100994.63;5099495;27;45327;-67
2023/07/03 09:05:52;;;;;;;;;6.00;5.00;;;;;24.75;41.18;100986.72;5098006;27;45544;-77
2023/07/03 09:08:27;;;;;;;;;7.00;4.00;;;;;24.58;41.00;100972.94;5097048;27;45688;-69
2023/07/03 09:10:52;;;;;;;;;6.67;4.00;;;;;24.52;41.32;101002.94;5099110;27;45715;-70
2023/07/03 09:13:30;;;;;;;;;6.00;3.67;;;;;23.63;41.81;100876.78;5096438;27;45564;-69
2023/07/03 09:16:11;;;;;;;;;8.33;5.33;;;;;24.40;42.07;101007.47;5102502;27;45455;-69
2023/07/03 09:18:42;;;;;;;;;3.67;3.33;;;;;24.32;42.10;101010.50;5120448;27;45377;-69
2023/07/03 09:21:08;;;;;;;;;5.67;5.00;;;;;24.30;42.60;101009.91;5106655;27;46778;-69
2023/07/03 09:23:42;;;;;;;;;8.33;5.00;;;;;24.31;42.60;101017.00;5097930;27;45566;-68
2023/07/03 09:26:20;;;;;;;;;5.00;5.00;;;;;24.07;42.59;100967.94;5100812;27;45428;-68
2023/07/03 09:28:47;;;;;;;;;6.33;5.67;;;;;24.52;42.13;100992.88;5096328;27;45652;-68
2023/07/03 09:31:20;;;;;;;;;4.00;4.00;;;;;25.47;41.42;101001.09;5080977;27;47732;-73
2023/07/03 09:33:45;;;;;;;;;5.67;5.67;;;;;27.28;38.70;100987.06;5099297;27;45501;-70
2023/07/03 09:36:34;;;;;;;;;14.00;11.33;;;;;29.60;34.21;100976.34;5103052;27;45519;-69
2023/07/03 09:39:20;;;;;;;;;7.67;6.67;;;;;32.13;30.40;100985.22;5118464;27;45425;-72
2023/07/03 09:41:45;;;;;;;;;5.67;5.00;;;;;33.91;28.84;100969.28;5091102;27;46280;-68
2023/07/03 09:44:13;;;;;;;;;8.00;5.67;;;;;35.17;25.91;100930.69;5083361;27;45514;-71
2023/07/03 09:46:39;;;;;;;;;7.00;5.00;;;;;36.05;24.61;100978.53;5086728;27;45600;-69
2023/07/03 09:49:13;;;;;;;;;5.00;5.00;;;;;35.82;24.38;100966.50;5105094;27;45670;-69
2023/07/03 09:51:39;;;;;;;;;5.67;5.00;;;;;36.27;24.48;100980.56;5098023;27;46444;-82
2023/07/03 09:54:16;;;;;;;;;5.00;5.00;;;;;36.80;23.77;100968.84;5091917;27;45429;-70
2023/07/03 09:56:41;;;;;;;;;5.00;5.00;;;;;36.89;23.07;100947.56;5091597;27;45489;-71
2023/07/03 09:59:09;;;;;;;;;3.67;3.00;;;;;37.36;22.78;100973.78;5059675;28;45430;-70
2023/07/03 10:01:38;;;;;;;;;6.00;5.00;;;;;36.80;23.16;100938.34;5066358;27;47365;-69
2023/07/03 10:04:13;;;;;;;;;6.00;5.00;;;;;36.72;23.04;100983.44;5080121;27;45455;-70
2023/07/03 10:06:41;;;;;;;;;5.00;5.00;;;;;35.81;23.32;100951.03;5080365;27;45435;-69
2023/07/03 10:09:17;;;;;;;;;4.67;4.67;;;;;35.11;24.30;100964.25;5079809;27;45365;-71
2023/07/03 10:12:08;;;;;;;;;3.67;3.67;;;;;34.42;24.98;100999.78;5088845;27;46550;-69
2023/07/03 10:14:43;;;;;;;;;6.00;6.00;;;;;33.85;26.30;101004.38;5092981;27;45796;-69
2023/07/03 10:17:12;;;;;;;;;8.67;7.33;;;;;33.19;26.22;100985.66;5079885;27;45616;-71
2023/07/03 10:19:43;;;;;;;;;12.33;9.67;;;;;32.40;27.48;100967.47;5077975;27;45541;-71
2023/07/03 10:22:09;;;;;;;;;8.33;8.33;;;;;32.05;27.75;100994.88;5088769;27;46609;-68
2023/07/03 10:24:35;;;;;;;;;4.67;4.67;;;;;31.43;28.70;100976.84;5100238;27;45574;-69
2023/07/03 10:27:03;;;;;;;;;4.00;4.00;;;;;31.07;29.29;100983.47;5090862;27;45547;-69
2023/07/03 10:29:33;;;;;;;;;6.00;5.67;;;;;30.51;29.59;100969.63;5097165;27;45685;-70
2023/07/03 10:32:08;;;;;;;;;5.33;5.33;;;;;30.38;29.99;100997.56;5097513;27;45556;-69
2023/07/03 10:34:47;;;;;;;;;5.33;5.33;;;;;29.96;30.70;100993.81;5097345;27;45472;-69
2023/07/03 10:37:16;;;;;;;;;8.00;7.00;;;;;29.81;31.49;100999.19;5082912;27;45324;-70
2023/07/03 10:40:28;;;;;;;;;4.33;4.33;;;;;29.21;31.32;100942.91;5097622;27;45487;-69
2023/07/03 10:42:58;;;;;;;;;5.00;4.00;;;;;29.25;31.45;100996.06;5027275;28;46840;-73
2023/07/03 10:45:25;;;;;;;;;5.33;3.67;;;;;28.96;31.57;101011.97;5067997;27;45503;-69
2023/07/03 10:47:50;;;;;;;;;3.00;3.00;;;;;28.78;32.26;101004.91;5091137;27;45564;-69
2023/07/03 10:50:17;;;;;;;;;2.33;2.00;;;;;28.60;32.36;101005.25;5089083;27;45319;-68
2023/07/03 10:52:47;;;;;;;;;4.00;4.00;;;;;28.57;32.64;101005.78;5117338;27;45627;-70
2023/07/03 10:55:31;;;;;;;;;4.67;3.33;;;;;28.31;31.76;101006.59;5079705;27;45548;-69
2023/07/03 10:58:05;;;;;;;;;3.00;1.00;;;;;28.16;32.98;101005.28;5091990;27;45470;-76
2023/07/03 11:01:09;;;;;;;;;4.67;3.33;;;;;27.85;32.64;101004.06;5094730;27;45425;-69
2023/07/03 11:03:53;;;;;;;;;4.00;3.00;;;;;27.32;32.57;100971.81;5069834;27;47589;-70
2023/07/03 11:06:35;;;;;;;;;4.00;4.00;;;;;27.33;32.90;100989.84;5059777;27;45938;-68
2023/07/03 11:09:11;;;;;;;;;6.67;3.67;;;;;27.22;33.16;100980.66;5097314;27;45356;-71
2023/07/03 11:11:42;;;;;;;;;4.00;4.00;;;;;27.28;32.40;100989.78;5096832;27;45447;-70
2023/07/03 11:14:36;;;;;;;;;5.00;4.00;;;;;27.08;31.97;100995.72;5096959;27;45708;-70
2023/07/03 11:17:29;;;;;;;;;7.00;7.00;;;;;27.01;31.63;100991.47;5096496;27;45606;-71
2023/07/03 11:20:20;;;;;;;;;4.67;3.67;;;;;26.97;31.21;100991.94;5082088;27;45507;-70
2023/07/03 11:23:09;;;;;;;;;4.00;3.00;;;;;26.71;29.65;100997.22;5045954;27;45634;-71
2023/07/03 11:26:05;;;;;;;;;3.33;3.33;;;;;26.45;29.83;100988.56;5097343;27;47704;-70
2023/07/03 11:28:43;;;;;;;;;4.33;3.00;;;;;26.33;30.66;100985.81;5062498;27;45356;-71
2023/07/03 11:31:10;;;;;;;;;6.00;4.00;;;;;26.29;30.56;100987.38;5092738;27;45757;-68